Time;durP1;ratioP1;P1;durP2;ratioP2;P2;SDS_P1;SDS_P2;PMS_P1;PMS_P2;Temp;Humidity;BMP_temperature;BMP_pressure;BME280_temperature;BME280_humidity;BME280_pressure;Samples;Min_cycle;Max_cycle;Signal;HPM_P1;HPM_P2
2023/01/07 00:01:15;;;;;;;31.73;22.13;;;9.90;99.90;;;;;;5013513;28;20088;-36
2023/01/07 00:03:41;;;;;;;33.97;22.10;;;9.90;99.90;;;;;;5013537;28;20042;-37
2023/01/07 00:06:10;;;;;;;34.38;21.92;;;9.90;99.90;;;;;;5003952;28;20034;-36
2023/01/07 00:08:37;;;;;;;31.20;22.02;;;10.00;99.90;;;;;;4993815;28;20174;-37
2023/01/07 00:11:05;;;;;;;36.50;23.42;;;10.00;99.90;;;;;;5001504;28;20045;-37
2023/01/07 00:13:32;;;;;;;33.92;22.42;;;10.10;99.90;;;;;;5013419;28;20046;-37
2023/01/07 00:16:09;;;;;;;37.33;23.00;;;10.10;99.90;;;;;;5013249;28;20050;-37
2023/01/07 00:18:38;;;;;;;32.97;21.73;;;10.10;99.90;;;;;;5009825;28;20132;-37
2023/01/07 00:21:06;;;;;;;32.45;21.77;;;10.10;99.90;;;;;;5009897;28;20104;-37
2023/01/07 00:23:34;;;;;;;37.67;23.23;;;10.10;99.90;;;;;;5009796;28;20049;-37
2023/01/07 00:26:06;;;;;;;35.38;23.73;;;10.10;99.90;;;;;;5008596;28;20035;-37
2023/01/07 00:28:37;;;;;;;33.13;22.25;;;10.10;99.90;;;;;;5009051;28;20038;-37
2023/01/07 00:31:06;;;;;;;32.63;22.20;;;10.10;99.90;;;;;;5027751;28;20049;-37
2023/01/07 00:33:40;;;;;;;37.30;23.55;;;10.10;99.90;;;;;;5009964;28;20042;-38
2023/01/07 00:36:07;;;;;;;32.72;23.00;;;10.20;99.90;;;;;;5025088;28;20124;-37
2023/01/07 00:38:34;;;;;;;35.42;23.58;;;10.20;99.90;;;;;;5031313;28;20091;-37
2023/01/07 00:41:00;;;;;;;33.80;22.40;;;10.20;99.90;;;;;;5018016;28;20442;-37
2023/01/07 00:43:27;;;;;;;34.05;23.75;;;10.20;99.90;;;;;;5011278;28;20042;-37
2023/01/07 00:45:52;;;;;;;38.22;25.70;;;10.20;99.90;;;;;;5010877;28;20037;-37
2023/01/07 00:48:18;;;;;;;37.15;24.63;;;10.20;99.90;;;;;;4992626;28;20558;-37
2023/01/07 00:50:47;;;;;;;37.03;24.77;;;10.30;99.90;;;;;;4997538;28;20037;-37
2023/01/07 00:53:13;;;;;;;36.08;25.20;;;10.20;99.90;;;;;;5012332;28;20038;-36
2023/01/07 00:55:39;;;;;;;34.60;24.08;;;10.20;99.90;;;;;;5012454;28;20422;-37
2023/01/07 00:58:05;;;;;;;34.90;24.35;;;10.30;99.90;;;;;;5012628;28;20046;-37
2023/01/07 01:00:31;;;;;;;37.70;24.05;;;10.30;99.90;;;;;;5031806;28;20084;-37
2023/01/07 01:02:58;;;;;;;36.60;24.63;;;10.30;99.90;;;;;;5032046;28;20174;-37
2023/01/07 01:05:24;;;;;;;35.13;23.10;;;10.30;99.90;;;;;;5032225;28;20120;-37
2023/01/07 01:07:50;;;;;;;36.70;26.13;;;10.30;99.90;;;;;;5032267;28;20038;-37
2023/01/07 01:10:18;;;;;;;36.47;24.40;;;10.30;99.90;;;;;;5027023;28;20033;-37
2023/01/07 01:12:44;;;;;;;35.42;25.42;;;10.30;99.90;;;;;;5003521;28;20040;-37
2023/01/07 01:15:15;;;;;;;37.28;25.25;;;10.40;99.90;;;;;;4992348;28;20046;-37
2023/01/07 01:17:41;;;;;;;36.63;24.80;;;10.40;99.90;;;;;;4992762;28;20558;-37
2023/01/07 01:20:10;;;;;;;35.97;24.33;;;10.40;99.90;;;;;;4992250;28;20125;-37
2023/01/07 01:22:37;;;;;;;35.80;25.67;;;10.40;99.90;;;;;;5026043;28;20029;-36
2023/01/07 01:25:03;;;;;;;37.90;25.70;;;10.40;99.90;;;;;;5031788;28;20037;-35
2023/01/07 01:27:30;;;;;;;33.17;24.35;;;10.40;99.90;;;;;;5031380;28;20034;-35
2023/01/07 01:29:56;;;;;;;37.28;24.77;;;10.40;99.90;;;;;;5033023;28;20029;-36
2023/01/07 01:32:22;;;;;;;35.42;25.33;;;10.40;99.90;;;;;;5031223;28;20051;-35
2023/01/07 01:34:48;;;;;;;37.53;25.60;;;10.40;99.90;;;;;;5031727;28;20120;-35
2023/01/07 01:37:14;;;;;;;33.70;24.45;;;10.40;99.90;;;;;;5031378;28;20099;-36
2023/01/07 01:39:40;;;;;;;38.42;25.85;;;10.40;99.90;;;;;;5015530;28;20092;-36
2023/01/07 01:42:05;;;;;;;35.00;24.48;;;10.40;99.90;;;;;;5011780;28;20120;-35
2023/01/07 01:44:34;;;;;;;34.55;24.38;;;10.40;99.90;;;;;;5011850;28;20056;-36
2023/01/07 01:47:03;;;;;;;36.95;25.88;;;10.40;99.90;;;;;;5013568;28;20106;-36
2023/01/07 01:49:33;;;;;;;37.42;24.70;;;10.40;99.90;;;;;;5011525;28;20125;-35
2023/01/07 01:52:12;;;;;;;32.97;23.35;;;10.40;99.90;;;;;;5030715;28;20048;-36
2023/01/07 01:54:40;;;;;;;35.20;23.98;;;10.40;99.90;;;;;;5031122;28;20096;-36
2023/01/07 01:57:07;;;;;;;36.58;24.15;;;10.40;99.90;;;;;;5025850;28;20041;-36
2023/01/07 01:59:37;;;;;;;34.05;23.52;;;10.40;99.90;;;;;;5011494;28;20511;-36
2023/01/07 02:02:05;;;;;;;34.05;23.80;;;10.40;99.90;;;;;;5025392;28;20040;-36
2023/01/07 02:04:31;;;;;;;29.67;22.00;;;10.50;99.90;;;;;;5011062;28;20041;-36
2023/01/07 02:07:04;;;;;;;33.65;23.92;;;10.40;99.90;;;;;;5001129;28;20246;-35
2023/01/07 02:09:30;;;;;;;36.85;25.20;;;10.50;99.90;;;;;;4992104;28;20510;-36
2023/01/07 02:12:05;;;;;;;34.20;24.90;;;10.40;99.90;;;;;;5021295;28;20038;-36
2023/01/07 02:14:48;;;;;;;36.58;24.38;;;10.40;99.90;;;;;;5011347;28;20037;-35
2023/01/07 02:17:45;;;;;;;37.77;24.80;;;10.40;99.90;;;;;;5011330;28;20045;-36
2023/01/07 02:20:22;;;;;;;33.80;23.33;;;10.40;99.90;;;;;;5022405;28;20049;-36
2023/01/07 02:22:59;;;;;;;32.28;23.13;;;10.40;99.90;;;;;;5030506;28;20077;-35
2023/01/07 02:25:28;;;;;;;35.25;24.98;;;10.40;99.90;;;;;;5031016;28;20038;-35
2023/01/07 02:28:25;;;;;;;33.15;22.67;;;10.40;99.90;;;;;;5025731;28;20503;-35
2023/01/07 02:31:44;;;;;;;34.55;22.75;;;10.40;99.90;;;;;;5013880;28;20034;-36
2023/01/07 02:34:13;;;;;;;34.63;25.02;;;10.40;99.90;;;;;;4951463;29;20130;-35
2023/01/07 02:36:54;;;;;;;35.15;22.75;;;10.40;99.90;;;;;;5026542;28;20056;-36
2023/01/07 02:39:33;;;;;;;36.25;23.90;;;10.40;99.90;;;;;;5030683;28;20065;-36
2023/01/07 02:42:08;;;;;;;34.70;23.95;;;10.40;99.90;;;;;;5007354;28;20044;-36
2023/01/07 02:44:40;;;;;;;33.15;24.20;;;10.40;99.90;;;;;;5016248;28;20044;-35
2023/01/07 02:47:13;;;;;;;36.25;25.20;;;10.40;99.90;;;;;;5023217;28;20041;-36
2023/01/07 02:49:39;;;;;;;30.77;22.77;;;10.40;99.90;;;;;;5011075;28;20458;-36
2023/01/07 02:52:23;;;;;;;30.63;23.10;;;10.40;99.90;;;;;;5030359;28;20045;-35
2023/01/07 02:55:07;;;;;;;32.63;23.38;;;10.40;99.90;;;;;;5006635;28;20038;-36
2023/01/07 02:57:41;;;;;;;;;;;10.40;99.90;;;;;;5004120;28;20391;-36
2023/01/07 03:00:18;;;;;;;30.00;22.20;;;10.40;99.90;;;;;;5012994;28;19975;-36
2023/01/07 03:03:02;;;;;;;29.80;21.25;;;10.40;99.90;;;;;;5030361;28;20053;-36
2023/01/07 03:05:51;;;;;;;27.25;21.02;;;10.40;99.90;;;;;;5030139;28;20049;-36
2023/01/07 03:08:41;;;;;;;31.38;21.98;;;10.40;99.90;;;;;;5030435;28;20391;-36
2023/01/07 03:11:08;;;;;;;29.35;21.08;;;10.40;99.90;;;;;;5030062;28;20116;-36
2023/01/07 03:13:49;;;;;;;25.83;20.38;;;10.40;99.90;;;;;;5018528;28;20053;-35
2023/01/07 03:16:28;;;;;;;29.67;20.55;;;10.40;99.90;;;;;;5010437;28;20053;-36
2023/01/07 03:19:15;;;;;;;28.60;21.48;;;10.40;99.90;;;;;;5014426;28;20553;-36
2023/01/07 03:21:42;;;;;;;28.33;21.45;;;10.40;99.90;;;;;;5014226;28;20510;-36
2023/01/07 03:24:08;;;;;;;26.77;20.65;;;10.40;99.90;;;;;;5015914;28;20384;-36
2023/01/07 03:26:39;;;;;;;25.98;20.70;;;10.40;99.90;;;;;;5025468;28;20041;-36
2023/01/07 03:29:07;;;;;;;28.38;21.05;;;10.40;99.90;;;;;;5014143;28;20036;-36
2023/01/07 03:31:43;;;;;;;26.25;20.67;;;10.30;99.90;;;;;;5006484;28;20057;-36
2023/01/07 03:34:14;;;;;;;23.83;19.42;;;10.30;99.90;;;;;;4996611;28;20061;-35
2023/01/07 03:36:43;;;;;;;27.02;19.95;;;10.30;99.90;;;;;;5033835;28;20429;-35
2023/01/07 03:39:11;;;;;;;26.77;19.52;;;10.30;99.90;;;;;;5019033;28;20030;-36
2023/01/07 03:44:24;;;;;;;25.80;19.67;;;10.30;99.90;;;;;;5030367;28;20513;-36
2023/01/07 03:46:51;;;;;;;27.00;19.17;;;10.30;99.90;;;;;;5033198;28;20041;-35
2023/01/07 03:49:17;;;;;;;26.30;20.17;;;10.30;99.90;;;;;;5033652;28;20041;-36
2023/01/07 03:51:42;;;;;;;25.73;19.02;;;10.30;99.90;;;;;;5019311;28;20529;-36
2023/01/07 03:54:08;;;;;;;24.17;18.08;;;10.30;99.90;;;;;;5033169;28;20467;-35
2023/01/07 03:56:34;;;;;;;26.45;18.80;;;10.30;99.90;;;;;;5030773;28;20041;-36
2023/01/07 03:59:00;;;;;;;23.67;17.83;;;10.30;99.90;;;;;;5021594;28;20041;-35
2023/01/07 04:01:26;;;;;;;22.85;17.23;;;10.20;99.90;;;;;;5016359;28;20053;-36
2023/01/07 04:03:52;;;;;;;24.55;18.27;;;10.30;99.90;;;;;;5033326;28;20040;-35
2023/01/07 04:06:18;;;;;;;22.80;18.20;;;10.20;99.90;;;;;;5020032;28;20049;-36
2023/01/07 04:08:44;;;;;;;22.90;17.70;;;10.30;99.90;;;;;;5032450;28;20037;-36
2023/01/07 04:11:09;;;;;;;23.98;17.80;;;10.20;99.90;;;;;;5032041;28;20449;-36
2023/01/07 04:13:35;;;;;;;20.67;16.25;;;10.30;99.90;;;;;;5032994;28;20397;-36
2023/01/07 04:16:01;;;;;;;19.02;16.27;;;10.30;99.90;;;;;;5033917;28;20045;-35
2023/01/07 04:18:27;;;;;;;21.00;16.63;;;10.30;99.90;;;;;;5033137;28;20095;-35
2023/01/07 04:20:52;;;;;;;20.15;16.45;;;10.30;99.90;;;;;;5013147;28;20046;-36
2023/01/07 04:23:18;;;;;;;19.95;16.25;;;10.30;99.90;;;;;;5001256;28;20045;-35
2023/01/07 04:25:48;;;;;;;20.98;16.52;;;10.20;99.90;;;;;;5014508;28;20129;-35
2023/01/07 04:28:14;;;;;;;19.95;16.30;;;10.20;99.90;;;;;;5019664;28;20547;-36
2023/01/07 04:30:39;;;;;;;18.73;16.60;;;10.20;99.90;;;;;;5012974;28;20121;-36
2023/01/07 04:33:06;;;;;;;17.95;15.63;;;10.20;99.90;;;;;;5012866;28;20050;-35
2023/01/07 04:35:33;;;;;;;21.45;15.70;;;10.20;99.90;;;;;;5014221;28;20466;-36
2023/01/07 04:37:59;;;;;;;19.55;15.00;;;10.20;99.90;;;;;;5025219;28;20038;-36
2023/01/07 04:40:26;;;;;;;18.55;15.15;;;10.30;99.90;;;;;;5025253;28;20046;-35
2023/01/07 04:42:51;;;;;;;17.67;13.95;;;10.20;99.90;;;;;;5033749;28;20510;-36
2023/01/07 04:45:17;;;;;;;17.40;13.80;;;10.20;99.90;;;;;;5030390;28;20076;-36
2023/01/07 04:47:43;;;;;;;17.17;13.45;;;10.10;99.90;;;;;;5030202;28;20072;-36
2023/01/07 04:50:09;;;;;;;16.80;13.15;;;10.10;99.90;;;;;;4993040;28;20116;-36
2023/01/07 04:52:34;;;;;;;21.70;13.80;;;10.10;99.90;;;;;;4999148;28;20117;-35
2023/01/07 04:55:00;;;;;;;17.40;13.00;;;10.10;99.90;;;;;;5031780;28;20045;-36
2023/01/07 04:57:26;;;;;;;16.23;13.27;;;10.10;99.90;;;;;;5015532;28;20120;-35
2023/01/07 04:59:52;;;;;;;17.83;14.07;;;10.10;99.90;;;;;;5032171;28;20038;-36
2023/01/07 05:02:17;;;;;;;15.45;12.68;;;10.10;99.90;;;;;;5033248;28;20041;-36
2023/01/07 05:04:43;;;;;;;16.90;13.43;;;10.10;99.90;;;;;;5030352;28;20113;-36
2023/01/07 05:07:09;;;;;;;18.85;13.48;;;10.10;99.90;;;;;;5019489;28;20037;-35
2023/01/07 05:09:35;;;;;;;18.80;13.40;;;10.10;99.90;;;;;;5015205;28;20041;-35
2023/01/07 05:12:00;;;;;;;16.30;12.70;;;10.10;99.90;;;;;;5031520;28;20045;-36
2023/01/07 05:14:26;;;;;;;16.15;12.65;;;10.10;99.90;;;;;;5025377;28;20044;-35
2023/01/07 05:16:52;;;;;;;15.57;12.52;;;10.10;99.90;;;;;;5011686;28;20033;-36
2023/01/07 05:19:18;;;;;;;14.65;11.85;;;10.10;99.90;;;;;;5011998;28;20045;-36
2023/01/07 05:21:44;;;;;;;15.93;11.45;;;10.10;99.90;;;;;;5011749;28;20034;-36
2023/01/07 05:24:09;;;;;;;13.80;11.98;;;10.10;99.90;;;;;;5008208;28;20093;-35
2023/01/07 05:26:35;;;;;;;12.95;11.25;;;10.10;99.90;;;;;;5019104;28;20033;-35
2023/01/07 05:29:01;;;;;;;15.85;12.80;;;10.10;99.90;;;;;;5015139;28;20128;-36
2023/01/07 05:31:26;;;;;;;13.77;11.65;;;10.10;99.90;;;;;;5021748;28;20034;-35
2023/01/07 05:33:52;;;;;;;14.10;11.57;;;10.10;99.90;;;;;;5011659;28;20046;-36
2023/01/07 05:36:18;;;;;;;13.85;12.27;;;10.10;99.90;;;;;;4983770;28;20523;-36
2023/01/07 05:38:44;;;;;;;14.63;12.02;;;10.10;99.90;;;;;;4992093;28;20044;-36
2023/01/07 05:41:09;;;;;;;13.88;11.57;;;10.10;99.90;;;;;;4996317;28;20042;-36
2023/01/07 05:43:35;;;;;;;12.23;11.02;;;10.10;99.90;;;;;;5011657;28;20088;-35
2023/01/07 05:46:01;;;;;;;17.60;11.18;;;10.10;99.90;;;;;;5011305;28;20121;-36
2023/01/07 05:48:26;;;;;;;14.68;10.85;;;10.10;99.90;;;;;;5011289;28;20040;-36
2023/01/07 05:50:52;;;;;;;13.18;10.95;;;10.10;99.90;;;;;;5025001;28;20049;-36
2023/01/07 05:53:18;;;;;;;14.63;10.30;;;10.10;99.90;;;;;;5031289;28;20457;-36
2023/01/07 05:55:45;;;;;;;13.20;10.95;;;10.10;99.90;;;;;;5030933;28;20084;-36
2023/01/07 05:58:10;;;;;;;12.27;10.80;;;10.10;99.90;;;;;;5013181;28;20037;-36
2023/01/07 06:00:38;;;;;;;11.13;9.93;;;10.10;99.90;;;;;;5011419;28;20125;-35
2023/01/07 06:03:04;;;;;;;12.95;10.23;;;10.10;99.90;;;;;;5002186;28;20081;-36
2023/01/07 06:05:30;;;;;;;11.80;10.55;;;10.10;99.90;;;;;;4975420;28;20089;-36
2023/01/07 06:07:56;;;;;;;12.07;9.38;;;10.10;99.90;;;;;;4991802;28;20042;-35
2023/01/07 06:10:22;;;;;;;13.38;9.40;;;10.10;99.90;;;;;;4997542;28;20038;-36
2023/01/07 06:12:50;;;;;;;11.20;9.13;;;10.10;99.90;;;;;;5011040;28;20042;-35
2023/01/07 06:15:16;;;;;;;12.10;9.38;;;10.10;99.90;;;;;;5029493;28;20042;-36
2023/01/07 06:17:42;;;;;;;11.07;9.73;;;10.10;99.90;;;;;;5020264;28;20042;-36
2023/01/07 06:20:08;;;;;;;11.77;9.48;;;10.10;99.90;;;;;;5024692;28;20080;-35
2023/01/07 06:22:35;;;;;;;11.65;9.90;;;10.10;99.90;;;;;;5019237;28;20483;-35
2023/01/07 06:25:01;;;;;;;13.27;9.70;;;10.10;99.90;;;;;;5030705;28;20045;-35
2023/01/07 06:27:27;;;;;;;14.50;10.63;;;10.10;99.90;;;;;;5020781;28;20038;-35
2023/01/07 06:29:52;;;;;;;13.23;9.98;;;10.00;99.90;;;;;;5005575;28;20046;-35
2023/01/07 06:32:18;;;;;;;11.75;9.35;;;10.00;99.90;;;;;;5015746;28;20042;-36
2023/01/07 06:34:44;;;;;;;10.52;9.43;;;10.00;99.90;;;;;;5035671;28;20034;-35
2023/01/07 06:37:10;;;;;;;11.75;9.32;;;10.00;99.90;;;;;;4995275;28;20121;-35
2023/01/07 06:39:36;;;;;;;10.38;9.00;;;10.00;99.90;;;;;;5010745;28;20069;-35
2023/01/07 06:42:01;;;;;;;9.13;8.15;;;10.00;99.90;;;;;;5011067;28;20128;-36
2023/01/07 06:44:27;;;;;;;11.50;8.95;;;10.00;99.90;;;;;;5010880;28;20486;-36
2023/01/07 06:46:53;;;;;;;10.45;9.30;;;10.00;99.90;;;;;;5020580;28;20532;-36
2023/01/07 06:49:18;;;;;;;9.75;8.57;;;10.00;99.90;;;;;;5047321;28;20041;-36
2023/01/07 06:51:44;;;;;;;12.10;8.27;;;10.00;99.90;;;;;;5032576;28;20391;-36
2023/01/07 06:54:10;;;;;;;10.77;8.43;;;10.00;99.90;;;;;;5021758;28;20511;-35
2023/01/07 06:56:36;;;;;;;11.73;8.23;;;10.00;99.90;;;;;;4991098;28;20085;-36
2023/01/07 06:59:01;;;;;;;9.13;8.23;;;10.00;99.90;;;;;;5008068;28;20042;-36
2023/01/07 07:01:27;;;;;;;11.02;8.93;;;10.00;99.90;;;;;;5017026;28;20060;-36
2023/01/07 07:03:53;;;;;;;10.27;8.35;;;10.00;99.90;;;;;;5026362;28;20502;-36
2023/01/07 07:06:19;;;;;;;8.73;7.82;;;10.00;99.90;;;;;;4991607;28;20042;-36
2023/01/07 07:08:47;;;;;;;9.55;7.97;;;10.00;99.90;;;;;;5028561;28;20041;-36
2023/01/07 07:11:13;;;;;;;8.65;7.22;;;10.00;99.90;;;;;;5012920;28;20049;-35
2023/01/07 07:13:39;;;;;;;11.77;8.23;;;10.00;99.90;;;;;;5010192;28;20037;-35
2023/01/07 07:16:05;;;;;;;8.63;7.28;;;10.00;99.90;;;;;;5013218;28;20037;-36
2023/01/07 07:18:31;;;;;;;11.93;8.23;;;9.90;99.90;;;;;;5031342;28;20400;-36
2023/01/07 07:20:57;;;;;;;8.77;7.18;;;9.90;99.90;;;;;;5017376;28;20045;-36
2023/01/07 07:23:23;;;;;;;9.32;7.55;;;9.90;99.90;;;;;;4999011;28;20066;-35
2023/01/07 07:25:49;;;;;;;9.77;7.47;;;9.80;99.90;;;;;;5006818;28;20484;-35
2023/01/07 07:28:15;;;;;;;8.80;7.35;;;9.80;99.90;;;;;;5013211;28;20045;-36
2023/01/07 07:30:42;;;;;;;8.55;7.55;;;9.80;99.90;;;;;;5005083;28;20099;-36
2023/01/07 07:33:08;;;;;;;8.48;7.45;;;9.80;99.90;;;;;;5004001;28;20054;-35
2023/01/07 07:35:33;;;;;;;9.18;7.57;;;9.70;99.90;;;;;;5004281;28;20145;-36
2023/01/07 07:37:59;;;;;;;9.00;7.20;;;9.70;99.90;;;;;;5011685;28;20160;-37
2023/01/07 07:40:25;;;;;;;12.38;8.30;;;9.70;99.90;;;;;;5014900;28;20074;-36
2023/01/07 07:42:51;;;;;;;11.90;7.35;;;9.60;99.90;;;;;;5014189;28;20113;-36
2023/01/07 07:45:18;;;;;;;9.35;8.02;;;9.70;99.90;;;;;;5014157;28;20060;-36
2023/01/07 07:47:45;;;;;;;9.38;7.68;;;9.60;99.90;;;;;;4996454;28;20050;-36
2023/01/07 07:50:10;;;;;;;9.65;8.65;;;9.60;99.90;;;;;;5013729;28;20050;-37
2023/01/07 07:52:36;;;;;;;9.85;8.05;;;9.60;99.90;;;;;;5013202;28;20384;-36
2023/01/07 07:55:02;;;;;;;11.98;8.23;;;9.50;99.90;;;;;;5013767;28;20069;-36
2023/01/07 07:57:28;;;;;;;9.10;7.93;;;9.50;99.90;;;;;;5014606;28;20053;-36
2023/01/07 07:59:54;;;;;;;10.05;8.70;;;9.40;99.90;;;;;;5017172;28;20049;-36
2023/01/07 08:02:19;;;;;;;9.50;8.32;;;9.40;99.90;;;;;;5022288;28;20037;-36
2023/01/07 08:04:45;;;;;;;15.90;12.18;;;9.40;99.90;;;;;;5012889;28;20034;-36
2023/01/07 08:07:11;;;;;;;11.43;10.30;;;9.40;99.90;;;;;;5013033;28;20067;-36
2023/01/07 08:09:38;;;;;;;9.75;8.77;;;9.40;99.90;;;;;;5027241;28;20041;-36
2023/01/07 08:12:04;;;;;;;10.48;9.10;;;9.40;99.90;;;;;;5026465;28;20046;-36
2023/01/07 08:14:30;;;;;;;8.85;7.95;;;9.30;99.90;;;;;;5017743;28;20084;-36
2023/01/07 08:16:55;;;;;;;9.85;8.77;;;9.30;99.90;;;;;;5013235;28;20074;-36
2023/01/07 08:19:21;;;;;;;8.52;7.65;;;9.30;99.90;;;;;;5012942;28;20435;-36
2023/01/07 08:21:48;;;;;;;9.43;8.15;;;9.30;99.90;;;;;;5017166;28;20041;-36
2023/01/07 08:24:14;;;;;;;9.77;8.02;;;9.30;99.90;;;;;;5006284;28;20041;-36
2023/01/07 08:26:40;;;;;;;9.15;8.10;;;9.20;99.90;;;;;;5013003;28;20556;-36
2023/01/07 08:29:06;;;;;;;9.30;7.88;;;9.20;99.90;;;;;;5013013;28;20123;-36
2023/01/07 08:31:31;;;;;;;9.55;8.40;;;9.20;99.90;;;;;;5021483;28;20048;-36
2023/01/07 08:33:58;;;;;;;8.55;7.55;;;9.30;99.90;;;;;;5041822;28;20053;-36
2023/01/07 08:36:23;;;;;;;10.05;7.93;;;9.20;99.90;;;;;;4993312;28;20427;-37
2023/01/07 08:38:53;;;;;;;10.52;7.38;;;9.30;99.90;;;;;;5010838;28;20042;-36
2023/01/07 08:41:20;;;;;;;9.82;7.60;;;9.30;99.90;;;;;;4993508;28;20117;-36
2023/01/07 08:43:46;;;;;;;9.43;8.27;;;9.30;99.90;;;;;;5009827;28;20049;-36
2023/01/07 08:46:12;;;;;;;13.15;9.57;;;9.40;99.90;;;;;;5029328;28;20421;-36
2023/01/07 08:48:39;;;;;;;12.35;8.82;;;9.40;99.90;;;;;;5023004;28;20096;-36
2023/01/07 08:51:05;;;;;;;11.65;7.90;;;9.40;99.90;;;;;;5012534;28;20038;-36
2023/01/07 08:53:32;;;;;;;10.77;8.10;;;9.50;99.90;;;;;;5028700;28;20042;-36
2023/01/07 08:55:58;;;;;;;8.52;6.28;;;9.60;99.90;;;;;;5003272;28;20097;-36
2023/01/07 08:58:24;;;;;;;9.75;7.35;;;9.60;99.90;;;;;;5031331;28;20033;-36
2023/01/07 09:00:53;;;;;;;6.93;5.75;;;9.70;99.90;;;;;;5031897;28;20099;-36
2023/01/07 09:03:19;;;;;;;8.32;6.57;;;9.80;99.90;;;;;;5032310;28;20502;-36
2023/01/07 09:05:46;;;;;;;7.70;6.22;;;9.80;99.90;;;;;;5031979;28;20077;-36
2023/01/07 09:08:11;;;;;;;6.68;5.80;;;9.90;99.90;;;;;;5033122;28;20048;-36
2023/01/07 09:10:37;;;;;;;6.10;5.50;;;9.90;99.90;;;;;;5021862;28;20037;-35
2023/01/07 09:13:03;;;;;;;6.05;5.45;;;9.90;99.90;;;;;;4992439;28;20401;-35
2023/01/07 09:15:29;;;;;;;9.02;5.60;;;9.90;99.90;;;;;;5012250;28;20312;-36
2023/01/07 09:17:54;;;;;;;5.93;5.32;;;9.90;99.90;;;;;;5025200;28;20077;-35
2023/01/07 09:20:20;;;;;;;6.50;5.35;;;9.90;99.90;;;;;;4992107;28;20125;-36
2023/01/07 09:22:46;;;;;;;8.25;5.03;;;9.90;99.90;;;;;;4993223;28;20042;-36
2023/01/07 09:25:12;;;;;;;6.63;5.10;;;9.90;99.90;;;;;;5025697;28;20042;-35
2023/01/07 09:27:39;;;;;;;6.68;4.63;;;9.90;99.90;;;;;;5011881;28;20511;-35
2023/01/07 09:30:06;;;;;;;6.68;5.20;;;9.90;99.90;;;;;;5003806;28;20045;-35
2023/01/07 09:32:32;;;;;;;5.03;4.22;;;9.90;99.90;;;;;;5031300;28;20120;-36
2023/01/07 09:34:58;;;;;;;5.55;4.32;;;9.90;99.90;;;;;;5019150;28;20169;-35
2023/01/07 09:37:23;;;;;;;7.22;4.35;;;10.00;99.90;;;;;;5011615;28;20127;-36
2023/01/07 09:39:49;;;;;;;6.15;3.90;;;10.00;99.90;;;;;;5011322;28;20046;-35
2023/01/07 09:42:43;;;;;;;4.50;4.10;;;10.00;99.90;;;;;;5005717;28;20435;-36
2023/01/07 09:45:18;;;;;;;4.30;3.90;;;10.10;99.90;;;;;;4992325;28;20045;-35
2023/01/07 09:47:50;;;;;;;6.15;3.80;;;10.10;99.90;;;;;;5008640;28;20339;-36
2023/01/07 09:50:29;;;;;;;4.40;4.00;;;10.20;99.90;;;;;;5011728;28;20042;-36
2023/01/07 09:52:59;;;;;;;4.53;3.58;;;10.20;99.90;;;;;;5011723;28;20038;-36
2023/01/07 09:55:32;;;;;;;5.28;3.53;;;10.20;99.90;;;;;;5011195;28;20050;-36
2023/01/07 09:57:58;;;;;;;4.53;3.80;;;10.30;99.90;;;;;;5009426;28;20331;-36
2023/01/07 10:00:24;;;;;;;4.57;3.90;;;10.30;99.90;;;;;;4996128;28;20058;-36
2023/01/07 10:03:11;;;;;;;4.50;4.10;;;10.40;99.90;;;;;;4990495;28;20388;-36
2023/01/07 10:05:52;;;;;;;5.40;4.20;;;10.40;99.90;;;;;;5025796;28;20029;-36
2023/01/07 10:08:24;;;;;;;5.82;4.25;;;10.50;99.90;;;;;;5047460;28;20042;-36
2023/01/07 10:11:06;;;;;;;4.60;3.53;;;10.60;99.90;;;;;;5047362;28;20083;-36
2023/01/07 10:13:59;;;;;;;4.60;3.30;;;10.60;99.90;;;;;;5031099;28;20072;-36
2023/01/07 10:17:18;;;;;;;4.22;3.33;;;10.60;99.90;;;;;;5034815;28;20042;-36
2023/01/07 10:20:03;;;;;;;3.30;3.00;;;10.60;99.90;;;;;;4940857;28;20098;-37
2023/01/07 10:22:47;;;;;;;6.72;3.63;;;10.70;99.90;;;;;;5005045;28;20503;-37
2023/01/07 10:25:19;;;;;;;3.63;3.08;;;10.70;99.90;;;;;;4992099;28;20046;-37
2023/01/07 10:27:46;;;;;;;4.40;3.97;;;10.70;99.90;;;;;;5016327;28;20506;-37
2023/01/07 10:30:18;;;;;;;3.22;2.95;;;10.70;99.90;;;;;;5019238;28;20475;-38
2023/01/07 10:32:45;;;;;;;4.63;3.20;;;10.70;99.90;;;;;;5037508;28;20074;-37
2023/01/07 10:35:19;;;;;;;3.78;3.17;;;10.70;99.90;;;;;;5025409;28;20046;-37
2023/01/07 10:37:45;;;;;;;3.47;2.80;;;10.70;99.90;;;;;;4998314;28;20038;-37
2023/01/07 10:40:26;;;;;;;3.70;2.83;;;10.70;99.90;;;;;;5018724;28;20048;-37
2023/01/07 10:43:16;;;;;;;3.53;2.70;;;10.70;99.90;;;;;;5017295;28;20074;-37
2023/01/07 10:46:03;;;;;;;3.10;2.80;;;10.70;99.90;;;;;;5031308;28;20128;-37
2023/01/07 10:48:35;;;;;;;3.75;2.65;;;10.70;99.90;;;;;;5052924;28;20045;-38
2023/01/07 10:51:11;;;;;;;3.40;3.08;;;10.80;99.90;;;;;;5050905;28;20347;-37
2023/01/07 10:53:46;;;;;;;3.22;2.72;;;10.70;99.90;;;;;;5017555;28;20038;-37
2023/01/07 10:56:38;;;;;;;3.92;3.20;;;10.80;99.90;;;;;;5020708;28;20045;-37
2023/01/07 10:59:04;;;;;;;3.60;3.30;;;10.80;99.90;;;;;;5037806;28;20049;-37
2023/01/07 11:01:39;;;;;;;3.35;2.95;;;10.80;99.90;;;;;;5018611;28;20569;-37
2023/01/07 11:04:14;;;;;;;2.78;2.53;;;10.80;99.90;;;;;;5023887;28;20045;-36
2023/01/07 11:06:40;;;;;;;3.40;3.10;;;10.80;99.90;;;;;;5017490;28;20045;-37
2023/01/07 11:09:12;;;;;;;4.45;3.40;;;10.80;99.90;;;;;;5017668;28;20038;-37
2023/01/07 11:11:39;;;;;;;4.07;3.03;;;10.80;99.90;;;;;;5017532;28;20038;-37
2023/01/07 11:14:30;;;;;;;4.30;3.08;;;10.80;99.90;;;;;;5017779;28;20463;-37
2023/01/07 11:17:06;;;;;;;4.05;3.10;;;10.80;99.90;;;;;;5036924;28;20084;-37
2023/01/07 11:19:47;;;;;;;3.22;2.92;;;10.80;99.90;;;;;;5026548;28;20383;-37
2023/01/07 11:22:25;;;;;;;2.90;2.60;;;10.80;99.90;;;;;;5037208;28;20041;-37
2023/01/07 11:24:53;;;;;;;5.05;2.58;;;10.70;99.90;;;;;;5030442;28;20039;-38
2023/01/07 11:27:22;;;;;;;3.97;2.92;;;10.80;99.90;;;;;;4981201;28;20161;-38
2023/01/07 11:30:19;;;;;;;2.97;2.15;;;10.70;99.90;;;;;;5008149;28;20046;-37
2023/01/07 11:33:04;;;;;;;2.80;2.60;;;10.70;99.90;;;;;;5016927;28;20147;-38
2023/01/07 11:35:31;;;;;;;2.85;2.45;;;10.80;99.90;;;;;;5002124;28;20499;-37
2023/01/07 11:37:58;;;;;;;2.95;2.55;;;10.80;99.90;;;;;;5030483;28;20104;-37
2023/01/07 11:40:26;;;;;;;4.85;2.83;;;10.80;99.90;;;;;;5014007;28;20049;-37
2023/01/07 11:43:01;;;;;;;4.00;3.35;;;10.80;99.90;;;;;;5014129;28;20369;-38
2023/01/07 11:45:30;;;;;;;4.43;3.30;;;10.80;99.90;;;;;;5031302;28;20047;-37
2023/01/07 11:48:01;;;;;;;3.58;3.28;;;10.90;99.90;;;;;;5032051;28;20072;-37
2023/01/07 11:50:35;;;;;;;3.33;3.03;;;10.90;99.90;;;;;;5013699;28;20045;-37
2023/01/07 11:53:13;;;;;;;3.83;3.53;;;10.90;99.90;;;;;;5031677;28;20045;-38
2023/01/07 11:55:54;;;;;;;3.05;2.72;;;11.00;99.90;;;;;;5050126;28;20052;-37
2023/01/07 11:58:20;;;;;;;2.92;2.63;;;11.00;99.90;;;;;;5034173;28;20498;-37
2023/01/07 12:01:01;;;;;;;3.60;2.78;;;11.10;99.90;;;;;;5019070;28;20038;-37
2023/01/07 12:03:28;;;;;;;5.57;2.20;;;11.10;99.90;;;;;;5014002;28;20095;-38
2023/01/07 12:06:06;;;;;;;2.65;2.33;;;11.10;99.90;;;;;;5028551;28;20048;-38
2023/01/07 12:08:32;;;;;;;3.47;2.30;;;11.10;99.90;;;;;;5005638;28;20034;-37
2023/01/07 12:11:06;;;;;;;2.40;2.20;;;11.10;99.90;;;;;;5008465;28;20068;-37
2023/01/07 12:13:33;;;;;;;;;;;11.10;99.90;;;;;;5030732;28;20041;-37
2023/01/07 12:16:03;;;;;;;2.25;2.05;;;11.10;99.90;;;;;;5013609;28;19964;-37
2023/01/07 12:18:43;;;;;;;3.08;2.50;;;11.20;99.90;;;;;;5012084;28;20077;-38
2023/01/07 12:21:18;;;;;;;2.70;2.50;;;11.60;99.90;;;;;;5013390;28;20424;-37
2023/01/07 12:23:53;;;;;;;3.83;2.65;;;11.80;99.90;;;;;;4997915;28;20041;-39
2023/01/07 12:26:23;;;;;;;2.22;2.00;;;11.90;99.90;;;;;;4997832;28;20484;-40
2023/01/07 12:29:25;;;;;;;2.65;2.20;;;12.00;99.90;;;;;;5024068;28;20407;-39
2023/01/07 12:32:10;;;;;;;3.63;2.13;;;12.00;99.90;;;;;;4998677;28;20092;-39
2023/01/07 12:34:55;;;;;;;3.17;2.30;;;12.10;99.90;;;;;;5009674;28;20033;-39
2023/01/07 12:37:45;;;;;;;3.70;2.60;;;12.20;99.90;;;;;;4993725;28;20587;-39
2023/01/07 12:40:15;;;;;;;3.00;2.60;;;12.10;99.90;;;;;;5005129;28;20526;-39
2023/01/07 12:42:49;;;;;;;3.10;2.65;;;12.10;99.90;;;;;;5014080;28;20039;-39
2023/01/07 12:45:36;;;;;;;3.05;2.50;;;12.20;99.90;;;;;;4999423;28;20449;-39
2023/01/07 12:48:10;;;;;;;2.00;1.80;;;12.30;99.90;;;;;;5004337;28;20066;-39
2023/01/07 12:50:41;;;;;;;4.97;2.67;;;12.30;99.90;;;;;;5003835;28;20046;-39
2023/01/07 12:53:28;;;;;;;3.63;2.83;;;12.30;99.90;;;;;;5005858;28;20113;-39
2023/01/07 12:56:06;;;;;;;2.70;2.00;;;12.10;99.90;;;;;;5027388;28;20033;-40